Terminal Aerodrome Forecast
Issued by NWS

Home | Current Version | Previous Version | Text Only | Print | Product List | Glossary On
Versions: 1 2 3 4 5 6 7 8 9 10 11 12
000
FTUS42 KTAE 101700
TAFABY
TAF
KABY 101720Z 1018/1118 24006KT P6SM BKN035
      TEMPO 1020/1024 3SM +TSRA SCT015 OVC030CB
     FM110300 25003KT P6SM SCT100 OVC250
     FM111400 32005KT P6SM SCT030 SCT100=

USA.gov is the U.S. government's official web portal to all federal, state and local government web resources and services.